createdAt,value
2017-04-09T00:01:17.201Z,3.66
2017-04-09T00:02:39.362Z,3.68
2017-04-09T00:04:01.785Z,3.68
2017-04-09T00:05:24.058Z,3.69
2017-04-09T00:06:46.529Z,3.72
2017-04-09T00:08:08.360Z,3.66
2017-04-09T00:09:30.755Z,3.73
2017-04-09T00:10:52.269Z,3.65
2017-04-09T00:12:13.767Z,3.72
2017-04-09T00:13:35.911Z,3.72
2017-04-09T00:14:58.015Z,3.7
2017-04-09T00:16:20.447Z,3.68
2017-04-09T00:17:42.310Z,3.62
2017-04-09T00:19:04.190Z,3.61
2017-04-09T00:20:26.684Z,3.57
2017-04-09T00:21:48.815Z,3.57
2017-04-09T00:23:11.060Z,3.45
2017-04-09T00:24:32.905Z,3.45
2017-04-09T00:25:54.975Z,3.42
2017-04-09T00:27:17.108Z,3.43
2017-04-09T00:28:38.622Z,3.29
2017-04-09T00:30:01.080Z,3.31
2017-04-09T00:31:23.146Z,3.32
2017-04-09T00:32:45.281Z,3.33
2017-04-09T00:34:07.113Z,3.33
2017-04-09T00:35:28.926Z,3.32
2017-04-09T00:36:51.402Z,3.26
2017-04-09T00:38:13.860Z,3.13
2017-04-09T00:39:35.675Z,3.17
2017-04-09T00:40:57.178Z,3.17
2017-04-09T00:42:19.949Z,3.18
2017-04-09T00:43:41.900Z,3.15
2017-04-09T00:45:04.383Z,3.15
2017-04-09T00:46:26.035Z,3.15
2017-04-09T00:47:48.211Z,3.14
2017-04-09T00:49:09.711Z,3.18
2017-04-09T00:50:31.540Z,3.13
2017-04-09T00:51:53.371Z,3.08
2017-04-09T00:53:15.543Z,3.03
2017-04-09T00:54:37.780Z,3.05
2017-04-09T00:55:59.921Z,3.14
2017-04-09T00:57:22.057Z,3.03
2017-04-09T00:58:44.540Z,3.02
2017-04-09T01:00:06.053Z,3.2
2017-04-09T01:01:28.186Z,3.13
2017-04-09T01:02:50.761Z,3.2
2017-04-09T01:04:13.326Z,3.14
2017-04-09T01:05:35.812Z,3.2
2017-04-09T01:06:57.670Z,3.18
2017-04-09T01:08:18.855Z,3.21
2017-04-09T01:09:41.021Z,3.28
2017-04-09T01:11:03.147Z,3.35
2017-04-09T01:12:25.419Z,3.28
2017-04-09T01:13:47.261Z,3.36
2017-04-09T01:15:10.023Z,3.42
2017-04-09T01:16:31.218Z,3.31
2017-04-09T01:17:53.585Z,3.4
2017-04-09T01:19:15.724Z,3.42
2017-04-09T01:20:38.167Z,3.42
2017-04-09T01:21:59.724Z,3.33
2017-04-09T01:23:21.219Z,3.43
2017-04-09T01:24:42.792Z,3.31
2017-04-09T01:26:04.561Z,3.31
2017-04-09T01:27:26.718Z,3.32
2017-04-09T01:28:48.864Z,3.21
2017-04-09T01:30:11.328Z,3.14
2017-04-09T01:31:33.178Z,3.17
2017-04-09T01:32:55.623Z,3.2
2017-04-09T01:34:17.422Z,3.18
2017-04-09T01:35:39.561Z,3.28
2017-04-09T01:37:02.323Z,3.14
2017-04-09T01:38:24.430Z,3.14
2017-04-09T01:39:45.909Z,3.14
2017-04-09T01:41:08.036Z,3.15
2017-04-09T01:42:30.158Z,3.05
2017-04-09T01:43:51.372Z,3.08
2017-04-09T01:45:13.516Z,3.05
2017-04-09T01:46:35.944Z,2.99
2017-04-09T01:47:58.230Z,3.05
2017-04-09T01:49:20.157Z,3.02
2017-04-09T01:50:41.385Z,2.95
2017-04-09T01:52:03.521Z,3.03
2017-04-09T01:53:26.009Z,3
2017-04-09T01:54:47.511Z,3.1
2017-04-09T01:56:09.338Z,3
2017-04-09T01:57:31.329Z,3.1
2017-04-09T01:58:53.135Z,3.14
2017-04-09T02:00:15.270Z,3.11
2017-04-09T02:01:36.758Z,3.17
2017-04-09T02:02:58.899Z,3.03
2017-04-09T02:04:21.335Z,3.02
2017-04-09T02:05:42.825Z,3.15
2017-04-09T02:07:05.275Z,3.03
2017-04-09T02:08:26.149Z,3.11
2017-04-09T02:09:48.638Z,2.96
2017-04-09T02:11:10.445Z,3.1
2017-04-09T02:12:32.254Z,2.99
2017-04-09T02:13:54.767Z,2.93
2017-04-09T02:15:17.476Z,2.96
2017-04-09T02:16:38.977Z,2.99
2017-04-09T02:18:00.574Z,2.97
2017-04-09T02:19:22.088Z,2.95
2017-04-09T02:20:44.847Z,2.9
2017-04-09T02:22:06.353Z,2.78
2017-04-09T02:23:28.528Z,2.69
2017-04-09T02:24:50.654Z,2.56
2017-04-09T02:26:12.759Z,2.63
2017-04-09T02:27:34.316Z,2.63
2017-04-09T02:28:56.000Z,2.57
2017-04-09T02:30:17.529Z,2.48
2017-04-09T02:31:39.966Z,2.54
2017-04-09T02:33:01.848Z,2.53
2017-04-09T02:34:23.727Z,2.46
2017-04-09T02:35:45.547Z,2.49
2017-04-09T02:37:07.999Z,2.46
2017-04-09T02:38:29.555Z,2.36
2017-04-09T02:39:51.378Z,2.42
2017-04-09T02:41:12.919Z,2.42
2017-04-09T02:42:35.043Z,2.36
2017-04-09T02:43:56.608Z,2.35
2017-04-09T02:45:18.467Z,2.42
2017-04-09T02:46:40.990Z,2.39
2017-04-09T02:48:03.759Z,2.36
2017-04-09T02:49:26.183Z,2.42
2017-04-09T02:50:47.995Z,2.52
2017-04-09T02:52:09.559Z,2.52
2017-04-09T02:53:31.357Z,2.56
2017-04-09T02:54:53.478Z,2.56
2017-04-09T02:56:15.630Z,2.54
2017-04-09T02:57:37.769Z,2.6
2017-04-09T02:59:00.245Z,2.54
2017-04-09T03:00:22.459Z,2.57
2017-04-09T03:01:44.754Z,2.57
2017-04-09T03:03:06.048Z,2.66
2017-04-09T03:04:28.228Z,2.66
2017-04-09T03:05:50.165Z,2.69
2017-04-09T03:07:11.667Z,2.78
2017-04-09T03:08:33.514Z,2.85
2017-04-09T03:09:55.931Z,2.89
2017-04-09T03:11:17.435Z,2.89
2017-04-09T03:12:39.247Z,2.99
2017-04-09T03:14:01.707Z,2.99
2017-04-09T03:15:24.266Z,3
2017-04-09T03:16:45.796Z,3.14
2017-04-09T03:18:07.612Z,3.03
2017-04-09T03:19:29.427Z,3.1
2017-04-09T03:20:51.936Z,3.06
2017-04-09T03:22:13.797Z,3.14
2017-04-09T03:23:36.225Z,3
2017-04-09T03:24:57.740Z,3.1
2017-04-09T03:26:20.265Z,2.92
2017-04-09T03:27:42.714Z,3
2017-04-09T03:29:04.548Z,3.03
2017-04-09T03:30:26.498Z,2.96
2017-04-09T03:31:48.757Z,3.03
2017-04-09T03:33:10.655Z,2.99
2017-04-09T03:34:31.882Z,3
2017-04-09T03:35:54.057Z,3.05
2017-04-09T03:37:15.844Z,3.06
2017-04-09T03:38:37.487Z,2.95
2017-04-09T03:39:59.323Z,2.99
2017-04-09T03:41:20.940Z,2.99
2017-04-09T03:42:43.136Z,2.95
2017-04-09T03:44:05.276Z,2.99
2017-04-09T03:45:27.106Z,3.05
2017-04-09T03:46:48.934Z,2.97
2017-04-09T03:48:10.893Z,2.93
2017-04-09T03:49:32.714Z,3.08
2017-04-09T03:50:54.237Z,3
2017-04-09T03:52:16.362Z,3
2017-04-09T03:53:37.794Z,3
2017-04-09T03:55:00.226Z,2.96
2017-04-09T03:56:22.057Z,2.9
2017-04-09T03:57:43.952Z,2.87
2017-04-09T03:59:06.058Z,2.95
2017-04-09T04:00:27.866Z,2.87
2017-04-09T04:01:49.718Z,2.85
2017-04-09T04:03:11.528Z,2.84
2017-04-09T04:04:33.074Z,2.77
2017-04-09T04:05:55.243Z,2.72
2017-04-09T04:07:16.737Z,2.71
2017-04-09T04:08:39.164Z,2.74
2017-04-09T04:10:01.584Z,2.6
2017-04-09T04:11:22.758Z,2.71
2017-04-09T04:12:44.901Z,2.6
2017-04-09T04:14:07.358Z,2.63
2017-04-09T04:15:29.483Z,2.61
2017-04-09T04:16:50.989Z,2.64
2017-04-09T04:18:12.796Z,2.66
2017-04-09T04:19:34.933Z,2.63
2017-04-09T04:20:56.669Z,2.6
2017-04-09T04:22:18.923Z,2.53
2017-04-09T04:23:40.762Z,2.59
2017-04-09T04:25:02.918Z,2.6
2017-04-09T04:26:25.130Z,2.57
2017-04-09T04:27:47.287Z,2.6
2017-04-09T04:29:08.796Z,2.6
2017-04-09T04:30:31.208Z,2.54
2017-04-09T04:31:53.893Z,2.59
2017-04-09T04:33:15.395Z,2.63
2017-04-09T04:34:37.517Z,2.61
2017-04-09T04:35:59.647Z,2.66
2017-04-09T04:37:21.756Z,2.6
2017-04-09T04:38:43.977Z,2.59
2017-04-09T04:40:06.137Z,2.59
2017-04-09T04:41:27.937Z,2.64
2017-04-09T04:42:50.077Z,2.69
2017-04-09T04:44:12.269Z,2.61
2017-04-09T04:45:34.718Z,2.75
2017-04-09T04:46:56.530Z,2.79
2017-04-09T04:48:19.058Z,2.84
2017-04-09T04:49:41.192Z,2.79
2017-04-09T04:51:03.018Z,2.89
2017-04-09T04:52:24.537Z,2.97
2017-04-09T04:53:46.368Z,3
2017-04-09T04:55:07.928Z,2.95
2017-04-09T04:56:29.796Z,2.97
2017-04-09T04:57:52.246Z,3.02
2017-04-09T04:59:14.623Z,3.2
2017-04-09T05:00:36.523Z,3.18
2017-04-09T05:01:58.353Z,3.17
2017-04-09T05:03:20.167Z,3.33
2017-04-09T05:04:41.971Z,3.31
2017-04-09T05:06:03.784Z,3.42
2017-04-09T05:07:25.964Z,3.4
2017-04-09T05:08:47.801Z,3.4
2017-04-09T05:10:10.165Z,3.45
2017-04-09T05:11:31.984Z,3.48
2017-04-09T05:12:54.145Z,3.52
2017-04-09T05:14:15.692Z,3.52
2017-04-09T05:15:37.893Z,3.68
2017-04-09T05:16:59.386Z,3.7
2017-04-09T05:18:21.847Z,3.96
2017-04-09T05:19:44.022Z,4
2017-04-09T05:21:06.280Z,4.04
2017-04-09T05:22:28.446Z,4.08
2017-04-09T05:23:50.266Z,4.18
2017-04-09T05:25:12.388Z,4.3
2017-04-09T05:26:34.193Z,4.29
2017-04-09T05:27:56.098Z,4.4
2017-04-09T05:29:17.612Z,4.54
2017-04-09T05:30:39.506Z,4.59
2017-04-09T05:32:01.563Z,4.63
2017-04-09T05:33:24.028Z,4.78
2017-04-09T05:34:46.216Z,4.91
2017-04-09T05:36:07.406Z,5.17
2017-04-09T05:37:30.235Z,5.25
2017-04-09T05:38:52.389Z,5.4
2017-04-09T05:40:14.642Z,5.42
2017-04-09T05:41:36.468Z,5.57
2017-04-09T05:42:59.221Z,5.76
2017-04-09T05:44:21.073Z,5.85
2017-04-09T05:45:42.594Z,6.01
2017-04-09T05:47:04.717Z,6.37
2017-04-09T05:48:26.836Z,6.64
2017-04-09T05:49:48.714Z,7.17
2017-04-09T05:51:10.695Z,7.4
2017-04-09T05:52:32.848Z,7.63
2017-04-09T05:53:55.605Z,7.9
2017-04-09T05:55:17.159Z,8.08
2017-04-09T05:56:39.729Z,8.47
2017-04-09T05:58:00.936Z,8.95
2017-04-09T05:59:23.519Z,9.71
2017-04-09T06:00:45.374Z,10.08
2017-04-09T06:02:06.888Z,10.4
2017-04-09T06:03:28.398Z,10.67
2017-04-09T06:04:50.787Z,10.92
2017-04-09T06:06:12.744Z,11.47
2017-04-09T06:07:34.655Z,12.02
2017-04-09T06:08:56.802Z,12.59
2017-04-09T06:10:18.887Z,13.42
2017-04-09T06:11:40.406Z,14.12
2017-04-09T06:13:01.918Z,14.4
2017-04-09T06:14:23.453Z,14.95
2017-04-09T06:15:45.836Z,15.59
2017-04-09T06:17:07.977Z,16.09
2017-04-09T06:18:30.491Z,16.61
2017-04-09T06:19:52.711Z,17.04
2017-04-09T06:21:14.917Z,17.41
2017-04-09T06:22:36.719Z,17.89
2017-04-09T06:23:58.941Z,18.15
2017-04-09T06:25:20.881Z,18.55
2017-04-09T06:26:43.325Z,18.95
2017-04-09T06:28:05.506Z,19.33
2017-04-09T06:29:27.345Z,19.56
2017-04-09T06:30:48.561Z,19.69
2017-04-09T06:32:10.314Z,19.86
2017-04-09T06:33:32.599Z,19.46
2017-04-09T06:34:54.839Z,19.33
2017-04-09T06:36:17.398Z,19.73
2017-04-09T06:37:39.594Z,19.92
2017-04-09T06:39:01.120Z,20.08
2017-04-09T06:40:23.271Z,20.69
2017-04-09T06:41:45.169Z,21.12
2017-04-09T06:43:07.399Z,21.27
2017-04-09T06:44:29.896Z,21.67
2017-04-09T06:45:51.427Z,22.17
2017-04-09T06:47:13.275Z,22.54
2017-04-09T06:48:35.365Z,22.4
2017-04-09T06:49:57.579Z,22.57
2017-04-09T06:51:19.409Z,22.8
2017-04-09T06:52:41.569Z,22.94
2017-04-09T06:54:04.011Z,23.38
2017-04-09T06:55:26.689Z,23.43
2017-04-09T06:56:48.524Z,23.8
2017-04-09T06:58:09.751Z,23.72
2017-04-09T06:59:31.903Z,24.08
2017-04-09T07:00:53.890Z,23.72
2017-04-09T07:02:15.740Z,24.2
2017-04-09T07:03:37.319Z,24.47
2017-04-09T07:04:59.620Z,24.84
2017-04-09T07:06:21.809Z,24.99
2017-04-09T07:07:43.649Z,25.3
2017-04-09T07:09:05.876Z,25.21
2017-04-09T07:10:27.678Z,25.39
2017-04-09T07:11:49.508Z,25.82
2017-04-09T07:13:11.348Z,25.77
2017-04-09T07:14:33.618Z,25.61
2017-04-09T07:15:55.718Z,25.58
2017-04-09T07:17:18.195Z,24.95
2017-04-09T07:18:40.399Z,24.4
2017-04-09T07:20:02.711Z,23.83
2017-04-09T07:21:25.423Z,24.46
2017-04-09T07:22:47.660Z,25.1
2017-04-09T07:24:09.814Z,24.98
2017-04-09T07:25:31.960Z,25.05
2017-04-09T07:26:54.728Z,25.27
2017-04-09T07:28:16.913Z,25.61
2017-04-09T07:29:39.147Z,25.54
2017-04-09T07:31:01.388Z,25.51
2017-04-09T07:32:23.159Z,25.73
2017-04-09T07:33:45.448Z,26.02
2017-04-09T07:35:07.931Z,26.02
2017-04-09T07:36:30.114Z,26.13
2017-04-09T07:37:52.540Z,26.43
2017-04-09T07:39:14.441Z,25.14
2017-04-09T07:40:36.018Z,24.98
2017-04-09T07:41:57.856Z,24.81
2017-04-09T07:43:20.271Z,25.28
2017-04-09T07:44:42.445Z,24.96
2017-04-09T07:46:04.297Z,24.16
2017-04-09T07:47:26.570Z,24.35
2017-04-09T07:48:49.007Z,24.09
2017-04-09T07:50:11.219Z,23.09
2017-04-09T07:51:33.417Z,21.75
2017-04-09T07:52:54.935Z,20.31
2017-04-09T07:54:17.489Z,19.25
2017-04-09T07:55:39.339Z,18.26
2017-04-09T07:57:01.279Z,17.52
2017-04-09T07:58:23.469Z,16.91
2017-04-09T07:59:45.919Z,16.31
2017-04-09T08:01:08.080Z,15.87
2017-04-09T08:02:30.344Z,15.67
2017-04-09T08:03:52.189Z,15.09
2017-04-09T08:05:14.340Z,14.94
2017-04-09T08:06:36.827Z,14.98
2017-04-09T08:07:59.018Z,14.77
2017-04-09T08:09:21.173Z,14.69
2017-04-09T08:10:43.930Z,14.68
2017-04-09T08:12:05.759Z,14.35
2017-04-09T08:13:27.949Z,14.25
2017-04-09T08:14:49.797Z,14.37
2017-04-09T08:16:12.046Z,14.36
2017-04-09T08:17:33.909Z,14.46
2017-04-09T08:18:55.712Z,14.52
2017-04-09T08:20:17.887Z,14.7
2017-04-09T08:21:40.664Z,14.55
2017-04-09T08:23:03.318Z,14.69
2017-04-09T08:24:25.479Z,14.72
2017-04-09T08:25:47.310Z,14.55
2017-04-09T08:27:09.470Z,14.47
2017-04-09T08:28:31.975Z,14.52
2017-04-09T08:29:53.851Z,14.68
2017-04-09T08:31:16.334Z,14.69
2017-04-09T08:32:38.108Z,14.81
2017-04-09T08:33:59.970Z,14.86
2017-04-09T08:35:22.430Z,15.01
2017-04-09T08:36:45.034Z,15.01
2017-04-09T08:38:06.854Z,15.1
2017-04-09T08:39:29.056Z,15.06
2017-04-09T08:40:50.929Z,15.07
2017-04-09T08:42:13.128Z,15.06
2017-04-09T08:43:35.621Z,15.16
2017-04-09T08:44:57.777Z,15.17
2017-04-09T08:46:19.999Z,15.19
2017-04-09T08:47:42.148Z,15.2
2017-04-09T08:49:04.211Z,15.34
2017-04-09T08:50:26.426Z,15.34
2017-04-09T08:51:48.599Z,15.27
2017-04-09T08:53:10.543Z,15.29
2017-04-09T08:54:32.630Z,15.38
2017-04-09T08:55:54.141Z,15.44
2017-04-09T08:57:16.295Z,15.56
2017-04-09T08:58:38.797Z,15.65
2017-04-09T09:00:01.208Z,15.82
2017-04-09T09:01:23.361Z,15.75
2017-04-09T09:02:45.254Z,16
2017-04-09T09:04:07.448Z,16
2017-04-09T09:05:29.238Z,16.01
2017-04-09T09:06:51.844Z,16.09
2017-04-09T09:08:13.677Z,16.11
2017-04-09T09:09:36.277Z,16.11
2017-04-09T09:10:59.047Z,16.23
2017-04-09T09:12:21.298Z,16.31
2017-04-09T09:13:43.755Z,16.31
2017-04-09T09:15:05.606Z,16.28
2017-04-09T09:16:27.688Z,16.33
2017-04-09T09:17:49.849Z,16.17
2017-04-09T09:19:11.772Z,16.23
2017-04-09T09:20:33.938Z,16.27
2017-04-09T09:21:56.077Z,16.02
2017-04-09T09:23:18.553Z,16.05
2017-04-09T09:24:40.395Z,16.09
2017-04-09T09:26:02.559Z,16.14
2017-04-09T09:27:24.692Z,16.12
2017-04-09T09:28:46.495Z,16.12
2017-04-09T09:30:08.036Z,16.21
2017-04-09T09:31:30.213Z,16.25
2017-04-09T09:32:51.341Z,16.24
2017-04-09T09:34:13.858Z,16.42
2017-04-09T09:35:35.761Z,16.58
2017-04-09T09:36:58.229Z,16.64
2017-04-09T09:38:20.949Z,16.71
2017-04-09T09:39:42.476Z,16.48
2017-04-09T09:41:04.329Z,16.53
2017-04-09T09:42:26.808Z,16.61
2017-04-09T09:43:49.229Z,16.66
2017-04-09T09:45:11.373Z,16.67
2017-04-09T09:46:33.531Z,16.64
2017-04-09T09:47:56.105Z,16.81
2017-04-09T09:49:18.262Z,16.64
2017-04-09T09:50:40.806Z,16.81
2017-04-09T09:52:03.337Z,16.82
2017-04-09T09:53:25.617Z,16.75
2017-04-09T09:54:48.052Z,16.75
2017-04-09T09:56:10.334Z,16.76
2017-04-09T09:57:32.828Z,16.86
2017-04-09T09:58:54.676Z,16.81
2017-04-09T10:00:17.530Z,16.86
2017-04-09T10:01:39.829Z,16.83
2017-04-09T10:03:01.696Z,16.63
2017-04-09T10:04:23.659Z,16.64
2017-04-09T10:05:45.498Z,16.38
2017-04-09T10:07:07.710Z,16.41
2017-04-09T10:08:29.229Z,16.46
2017-04-09T10:09:50.895Z,16.5
2017-04-09T10:11:13.005Z,16.63
2017-04-09T10:12:34.848Z,16.79
2017-04-09T10:13:56.725Z,16.68
2017-04-09T10:15:19.328Z,16.64
2017-04-09T10:16:41.816Z,16.76
2017-04-09T10:18:04.038Z,16.82
2017-04-09T10:19:25.678Z,16.82
2017-04-09T10:20:47.852Z,16.75
2017-04-09T10:22:10.266Z,16.66
2017-04-09T10:23:32.854Z,16.83
2017-04-09T10:24:55.052Z,16.68
2017-04-09T10:26:17.307Z,16.68
2017-04-09T10:27:39.754Z,16.83
2017-04-09T10:29:01.290Z,17
2017-04-09T10:30:23.220Z,17.07
2017-04-09T10:31:45.219Z,17.08
2017-04-09T10:33:07.754Z,16.98
2017-04-09T10:34:29.560Z,17.01
2017-04-09T10:35:52.062Z,17.11
2017-04-09T10:37:14.325Z,17.3
2017-04-09T10:38:38.364Z,17.25
2017-04-09T10:40:03.803Z,17.16
2017-04-09T10:41:28.742Z,17.19
2017-04-09T10:42:52.944Z,17.18
2017-04-09T10:44:18.886Z,17.4
2017-04-09T10:45:42.321Z,17.44
2017-04-09T10:47:04.851Z,17.46
2017-04-09T10:48:27.350Z,17.51
2017-04-09T10:49:49.526Z,17.55
2017-04-09T10:51:12.034Z,17.54
2017-04-09T10:52:33.549Z,17.33
2017-04-09T10:53:55.872Z,17.19
2017-04-09T10:55:17.650Z,17.23
2017-04-09T10:56:40.136Z,17.25
2017-04-09T10:58:01.745Z,17.34
2017-04-09T10:59:24.239Z,17.56
2017-04-09T11:00:46.682Z,17.52
2017-04-09T11:02:09.245Z,17.54
2017-04-09T11:03:31.418Z,17.43
2017-04-09T11:04:53.559Z,17.43
2017-04-09T11:06:15.965Z,17.52
2017-04-09T11:07:38.448Z,17.54
2017-04-09T11:09:01.440Z,17.64
2017-04-09T11:10:26.164Z,17.64
2017-04-09T11:11:51.001Z,17.78
2017-04-09T11:13:15.676Z,17.77
2017-04-09T11:14:40.212Z,17.84
2017-04-09T11:16:05.813Z,17.71
2017-04-09T11:17:29.590Z,17.78
2017-04-09T11:18:53.751Z,17.79
2017-04-09T11:20:17.419Z,17.78
2017-04-09T11:21:41.460Z,17.75
2017-04-09T11:23:05.936Z,17.72
2017-04-09T11:24:30.711Z,17.64
2017-04-09T11:25:56.157Z,17.81
2017-04-09T11:27:20.948Z,17.79
2017-04-09T11:28:44.821Z,17.78
2017-04-09T11:30:08.168Z,17.71
2017-04-09T11:31:31.561Z,17.7
2017-04-09T11:32:54.124Z,17.66
2017-04-09T11:34:16.206Z,17.71
2017-04-09T11:35:38.687Z,17.86
2017-04-09T11:37:00.926Z,17.96
2017-04-09T11:38:23.156Z,18.07
2017-04-09T11:39:45.335Z,17.96
2017-04-09T11:41:07.490Z,17.92
2017-04-09T11:42:30.225Z,18.02
2017-04-09T11:43:52.698Z,18.03
2017-04-09T11:45:14.458Z,18.14
2017-04-09T11:46:36.287Z,18.2
2017-04-09T11:47:58.806Z,18.3
2017-04-09T11:49:20.680Z,18.36
2017-04-09T11:50:43.167Z,18.3
2017-04-09T11:52:05.338Z,18.41
2017-04-09T11:53:27.512Z,18.42
2017-04-09T11:54:49.781Z,18.45
2017-04-09T11:56:12.544Z,18.5
2017-04-09T11:57:34.110Z,18.45
2017-04-09T11:58:56.595Z,18.41
2017-04-09T12:00:18.435Z,18.35
2017-04-09T12:01:40.849Z,18.45
2017-04-09T12:03:03.006Z,18.48
2017-04-09T12:04:25.180Z,18.6
2017-04-09T12:05:47.055Z,18.84
2017-04-09T12:07:09.784Z,18.78
2017-04-09T12:08:32.257Z,18.87
2017-04-09T12:09:54.536Z,19.08
2017-04-09T12:11:16.717Z,19.1
2017-04-09T12:12:39.121Z,19.13
2017-04-09T12:14:01.301Z,18.99
2017-04-09T12:15:23.772Z,18.91
2017-04-09T12:16:45.289Z,18.76
2017-04-09T12:18:07.787Z,18.44
2017-04-09T12:19:29.626Z,18.33
2017-04-09T12:20:51.449Z,18.33
2017-04-09T12:22:12.968Z,18.6
2017-04-09T12:23:35.158Z,18.65
2017-04-09T12:24:57.763Z,18.72
2017-04-09T12:26:20.264Z,18.87
2017-04-09T12:27:41.848Z,18.55
2017-04-09T12:29:04.257Z,18.66
2017-04-09T12:30:26.705Z,18.72
2017-04-09T12:31:49.296Z,18.7
2017-04-09T12:33:10.522Z,18.8
2017-04-09T12:34:32.756Z,18.72
2017-04-09T12:35:54.990Z,18.82
2017-04-09T12:37:16.947Z,18.8
2017-04-09T12:38:38.874Z,18.81
2017-04-09T12:40:01.338Z,18.7
2017-04-09T12:41:23.935Z,18.55
2017-04-09T12:42:46.127Z,18.52
2017-04-09T12:44:07.951Z,18.65
2017-04-09T12:45:29.754Z,18.7
2017-04-09T12:46:51.918Z,18.8
2017-04-09T12:48:13.745Z,18.8
2017-04-09T12:49:35.674Z,18.82
2017-04-09T12:50:57.750Z,18.87
2017-04-09T12:52:19.589Z,18.9
2017-04-09T12:53:41.471Z,18.85
2017-04-09T12:55:04.017Z,18.91
2017-04-09T12:56:26.774Z,18.87
2017-04-09T12:57:48.654Z,18.78
2017-04-09T12:59:10.884Z,18.84
2017-04-09T13:00:33.349Z,18.9
2017-04-09T13:01:55.808Z,19.02
2017-04-09T13:03:17.709Z,18.99
2017-04-09T13:04:40.206Z,19.02
2017-04-09T13:06:01.825Z,19.1
2017-04-09T13:07:24.069Z,19.18
2017-04-09T13:08:46.530Z,19.14
2017-04-09T13:10:08.812Z,19.08
2017-04-09T13:11:30.747Z,18.92
2017-04-09T13:12:52.852Z,18.95
2017-04-09T13:14:14.054Z,19.1
2017-04-09T13:15:35.592Z,19.19
2017-04-09T13:16:57.498Z,19.33
2017-04-09T13:18:19.997Z,19.37
2017-04-09T13:19:41.845Z,19.43
2017-04-09T13:21:03.684Z,19.46
2017-04-09T13:22:25.534Z,19.44
2017-04-09T13:23:47.375Z,19.46
2017-04-09T13:25:08.909Z,19.47
2017-04-09T13:26:31.129Z,19.37
2017-04-09T13:27:52.357Z,19.44
2017-04-09T13:29:14.461Z,19.44
2017-04-09T13:30:36.363Z,19.56
2017-04-09T13:31:58.524Z,19.55
2017-04-09T13:33:20.717Z,19.59
2017-04-09T13:34:43.129Z,19.63
2017-04-09T13:36:05.375Z,19.62
2017-04-09T13:37:27.557Z,19.62
2017-04-09T13:38:49.729Z,19.65
2017-04-09T13:40:11.870Z,19.61
2017-04-09T13:41:34.037Z,19.68
2017-04-09T13:42:55.638Z,19.69
2017-04-09T13:44:17.267Z,19.71
2017-04-09T13:45:39.104Z,19.8
2017-04-09T13:47:01.261Z,19.68
2017-04-09T13:48:23.099Z,19.59
2017-04-09T13:49:45.324Z,19.56
2017-04-09T13:51:07.532Z,19.61
2017-04-09T13:52:29.815Z,19.62
2017-04-09T13:53:52.299Z,19.56
2017-04-09T13:55:14.481Z,19.58
2017-04-09T13:56:37.369Z,19.74
2017-04-09T13:57:59.829Z,19.71
2017-04-09T13:59:22.017Z,19.69
2017-04-09T14:00:43.876Z,19.73
2017-04-09T14:02:06.348Z,19.66
2017-04-09T14:03:27.870Z,19.76
2017-04-09T14:04:50.339Z,19.68
2017-04-09T14:06:12.504Z,19.68
2017-04-09T14:07:35.293Z,19.62
2017-04-09T14:08:56.948Z,19.73
2017-04-09T14:10:19.290Z,19.8
2017-04-09T14:11:41.198Z,19.77
2017-04-09T14:13:03.977Z,19.74
2017-04-09T14:14:26.314Z,19.8
2017-04-09T14:15:48.466Z,19.8
2017-04-09T14:17:10.319Z,19.73
2017-04-09T14:18:32.415Z,19.78
2017-04-09T14:19:54.903Z,19.91
2017-04-09T14:21:17.060Z,19.78
2017-04-09T14:22:39.228Z,19.81
2017-04-09T14:24:02.152Z,19.73
2017-04-09T14:25:24.316Z,19.71
2017-04-09T14:26:46.231Z,19.68
2017-04-09T14:28:08.450Z,19.56
2017-04-09T14:29:30.927Z,19.65
2017-04-09T14:30:52.780Z,19.66
2017-04-09T14:32:14.950Z,19.71
2017-04-09T14:33:36.818Z,19.76
2017-04-09T14:34:59.039Z,19.73
2017-04-09T14:36:20.872Z,19.81
2017-04-09T14:37:42.719Z,19.77
2017-04-09T14:39:05.208Z,19.74
2017-04-09T14:40:27.626Z,19.91
2017-04-09T14:41:49.851Z,19.81
2017-04-09T14:43:12.051Z,19.86
2017-04-09T14:44:34.214Z,19.88
2017-04-09T14:45:56.714Z,19.96
2017-04-09T14:47:18.918Z,19.98
2017-04-09T14:48:41.110Z,19.96
2017-04-09T14:50:02.965Z,19.95
2017-04-09T14:51:25.431Z,19.92
2017-04-09T14:52:47.927Z,19.87
2017-04-09T14:54:10.405Z,19.76
2017-04-09T14:55:31.927Z,19.68
2017-04-09T14:56:54.323Z,19.65
2017-04-09T14:58:16.484Z,19.68
2017-04-09T14:59:38.653Z,19.66
2017-04-09T15:01:00.850Z,19.63
2017-04-09T15:02:23.588Z,19.71
2017-04-09T15:03:46.197Z,19.73
2017-04-09T15:05:08.673Z,19.74
2017-04-09T15:06:30.840Z,19.74
2017-04-09T15:07:53.057Z,19.74
2017-04-09T15:09:14.618Z,19.78
2017-04-09T15:10:36.464Z,19.77
2017-04-09T15:11:58.326Z,19.66
2017-04-09T15:13:21.075Z,19.71
2017-04-09T15:14:43.215Z,19.77
2017-04-09T15:16:05.447Z,19.69
2017-04-09T15:17:27.304Z,19.74
2017-04-09T15:18:49.105Z,19.77
2017-04-09T15:20:11.565Z,19.81
2017-04-09T15:21:33.075Z,19.8
2017-04-09T15:22:55.651Z,19.76
2017-04-09T15:24:18.072Z,19.66
2017-04-09T15:25:40.254Z,19.73
2017-04-09T15:27:01.821Z,19.59
2017-04-09T15:28:23.670Z,19.59
2017-04-09T15:29:45.968Z,19.61
2017-04-09T15:31:07.805Z,19.61
2017-04-09T15:32:29.965Z,19.68
2017-04-09T15:33:52.496Z,19.71
2017-04-09T15:35:14.612Z,19.78
2017-04-09T15:36:36.808Z,19.74
2017-04-09T15:37:59.303Z,19.76
2017-04-09T15:39:21.500Z,19.77
2017-04-09T15:40:43.971Z,19.78
2017-04-09T15:42:06.540Z,19.83
2017-04-09T15:43:29.021Z,19.73
2017-04-09T15:44:50.677Z,19.8
2017-04-09T15:46:13.411Z,19.71
2017-04-09T15:47:35.269Z,19.77
2017-04-09T15:48:57.677Z,19.73
2017-04-09T15:50:20.151Z,19.73
2017-04-09T15:51:42.557Z,19.66
2017-04-09T15:53:04.400Z,19.66
2017-04-09T15:54:26.492Z,19.66
2017-04-09T15:55:48.348Z,19.71
2017-04-09T15:57:11.173Z,19.69
2017-04-09T15:58:33.352Z,19.63
2017-04-09T15:59:55.824Z,19.69
2017-04-09T16:01:18.027Z,19.62
2017-04-09T16:02:40.116Z,19.61
2017-04-09T16:04:01.972Z,19.54
2017-04-09T16:05:23.817Z,19.5
2017-04-09T16:06:46.277Z,19.44
2017-04-09T16:08:08.049Z,19.44
2017-04-09T16:09:30.211Z,19.39
2017-04-09T16:10:52.076Z,19.43
2017-04-09T16:12:14.220Z,19.43
2017-04-09T16:13:36.956Z,19.47
2017-04-09T16:14:58.510Z,19.46
2017-04-09T16:16:20.446Z,19.41
2017-04-09T16:17:42.614Z,19.32
2017-04-09T16:19:04.762Z,19.32
2017-04-09T16:20:26.655Z,19.36
2017-04-09T16:21:49.119Z,19.32
2017-04-09T16:23:11.291Z,19.41
2017-04-09T16:24:33.680Z,19.26
2017-04-09T16:25:55.549Z,19.37
2017-04-09T16:27:17.847Z,19.31
2017-04-09T16:28:39.768Z,19.25
2017-04-09T16:30:02.570Z,19.16
2017-04-09T16:31:24.727Z,19.1
2017-04-09T16:32:46.916Z,19.18
2017-04-09T16:34:09.065Z,19.14
2017-04-09T16:35:31.568Z,19.14
2017-04-09T16:36:54.058Z,19.06
2017-04-09T16:38:15.580Z,19.13
2017-04-09T16:39:37.819Z,19.07
2017-04-09T16:41:00.564Z,19.07
2017-04-09T16:42:22.438Z,19.07
2017-04-09T16:43:44.947Z,19.06
2017-04-09T16:45:06.803Z,18.94
2017-04-09T16:46:29.596Z,18.92
2017-04-09T16:47:51.754Z,18.9
2017-04-09T16:49:14.321Z,18.88
2017-04-09T16:50:36.210Z,18.82
2017-04-09T16:51:58.300Z,18.81
2017-04-09T16:53:20.771Z,18.87
2017-04-09T16:54:43.377Z,18.84
2017-04-09T16:56:05.667Z,18.82
2017-04-09T16:57:28.097Z,18.8
2017-04-09T16:58:50.412Z,18.75
2017-04-09T17:00:12.306Z,18.8
2017-04-09T17:01:34.176Z,18.7
2017-04-09T17:02:56.587Z,18.62
2017-04-09T17:04:18.129Z,18.57
2017-04-09T17:05:40.338Z,18.52
2017-04-09T17:07:02.500Z,18.54
2017-04-09T17:08:25.308Z,18.45
2017-04-09T17:09:47.467Z,18.47
2017-04-09T17:11:09.051Z,18.35
2017-04-09T17:12:31.449Z,18.27
2017-04-09T17:13:54.191Z,18.29
2017-04-09T17:15:16.025Z,18.18
2017-04-09T17:16:37.868Z,18.3
2017-04-09T17:17:59.711Z,18.23
2017-04-09T17:19:22.213Z,18.15
2017-04-09T17:20:44.425Z,18.07
2017-04-09T17:22:06.599Z,18.08
2017-04-09T17:23:29.121Z,17.97
2017-04-09T17:24:51.947Z,17.89
2017-04-09T17:26:14.441Z,17.84
2017-04-09T17:27:36.633Z,17.79
2017-04-09T17:28:59.129Z,17.82
2017-04-09T17:30:21.891Z,17.75
2017-04-09T17:31:44.319Z,17.66
2017-04-09T17:33:06.498Z,17.64
2017-04-09T17:34:29.000Z,17.55
2017-04-09T17:35:51.497Z,17.54
2017-04-09T17:37:13.666Z,17.43
2017-04-09T17:38:35.540Z,17.46
2017-04-09T17:39:58.068Z,17.41
2017-04-09T17:41:21.055Z,17.37
2017-04-09T17:42:42.949Z,17.33
2017-04-09T17:44:05.136Z,17.23
2017-04-09T17:45:26.995Z,17.11
2017-04-09T17:46:49.759Z,17.08
2017-04-09T17:48:11.950Z,17
2017-04-09T17:49:33.250Z,17.06
2017-04-09T17:50:55.481Z,16.93
2017-04-09T17:52:18.049Z,16.97
2017-04-09T17:53:39.949Z,16.88
2017-04-09T17:55:02.511Z,16.86
2017-04-09T17:56:25.000Z,16.7